Archival Weather

Snohomish County (Paine Fld)

Everett, Washington (KPAE)

Report from: Monday, November 20, 2023 3:53 AM PST
Current time: Sunday, February 25, 2024 2:03 PM PST

Current weather – Weather history – Daily summaries
Weather forecast

Temperature3.3°C (37.9°F)
Wind chill0.4°C (32.7°F)
Dew point1.1°C (34.0°F)
Winds 6 kts (3.1 m/s, 6.9 mph) East (100°)
Visibility10 mi. (16.1 km)
Clouds Sky clear
Altimeter30.53 in.Hg (1034 mB)
Precip last 24 hours0.20 in. (5 mm)
Relative humidity85 %
Density altitude-2,026 ft. (-617 m)
Sea-level pressure103.4 kPa (1034 mB, 30.54 in.Hg)
Max temp last 6 hours5.6°C (42.1°F)
Min temp last 6 hours3.3°C (37.9°F)
Remarks Fully automated report
Automated weather observing station with precipitation discriminator
Pressure falling more quickly
Flight conditions Visual Meteorological Conditions
Raw dataKPAE 201153Z AUTO 10006KT 10SM CLR 03/01 A3053 RMK AO2 SLP341 70020 T00330011 10056 20033 58002
An error has occurred. This application may no longer respond until reloaded. Reload 🗙